Time;durP1;ratioP1;P1;durP2;ratioP2;P2;SDS_P1;SDS_P2;PMS_P1;PMS_P2;Temp;Humidity;BMP_temperature;BMP_pressure;BME280_temperature;BME280_humidity;BME280_pressure;Samples;Min_cycle;Max_cycle;Signal;HPM_P1;HPM_P2
2023/11/28 00:04:03;;;;;;;10.80;5.05;;;;;;;;;;10330823;28;20026;-78
2023/11/28 00:09:03;;;;;;;9.50;4.93;;;;;;;;;;10326906;28;20022;-78
2023/11/28 00:14:03;;;;;;;11.63;4.70;;;;;;;;;;10313774;28;20030;-78
2023/11/28 00:19:03;;;;;;;15.32;5.47;;;;;;;;;;10334511;28;20080;-79
2023/11/28 00:24:04;;;;;;;12.85;4.72;;;;;;;;;;10323914;28;20026;-73
2023/11/28 00:29:04;;;;;;;11.23;5.13;;;;;;;;;;10313900;28;20018;-80
2023/11/28 00:34:04;;;;;;;18.80;6.85;;;;;;;;;;10311691;28;20084;-81
2023/11/28 00:39:06;;;;;;;18.33;5.57;;;;;;;;;;10316857;28;20109;-80
2023/11/28 00:44:06;;;;;;;22.98;6.95;;;;;;;;;;10311582;28;20057;-74
2023/11/28 00:49:07;;;;;;;19.10;8.63;;;;;;;;;;10294636;28;20031;-76
2023/11/28 00:54:07;;;;;;;18.95;7.18;;;;;;;;;;10316600;28;20062;-81
2023/11/28 00:59:08;;;;;;;14.23;5.75;;;;;;;;;;10313624;28;20513;-78
2023/11/28 01:04:08;;;;;;;11.63;6.27;;;;;;;;;;10320165;28;20019;-76
2023/11/28 01:09:12;;;;;;;12.85;7.20;;;;;;;;;;10326875;28;20018;-81
2023/11/28 01:14:12;;;;;;;11.30;4.78;;;;;;;;;;10309768;28;20030;-74
2023/11/28 01:19:14;;;;;;;11.07;4.97;;;;;;;;;;10312381;28;20045;-79
2023/11/28 01:24:14;;;;;;;11.07;5.47;;;;;;;;;;10293949;28;20088;-76
2023/11/28 01:29:15;;;;;;;7.20;4.75;;;;;;;;;;10319202;28;20102;-80
2023/11/28 01:34:15;;;;;;;8.18;4.43;;;;;;;;;;10329903;28;20026;-75
2023/11/28 01:39:16;;;;;;;8.40;4.27;;;;;;;;;;10317245;28;20030;-74
2023/11/28 01:44:16;;;;;;;8.77;4.22;;;;;;;;;;10311774;28;20298;-79
2023/11/28 01:49:17;;;;;;;8.77;4.73;;;;;;;;;;10308511;28;20022;-80
2023/11/28 01:54:18;;;;;;;9.32;3.97;;;;;;;;;;10310725;28;20740;-79
2023/11/28 01:59:19;;;;;;;9.55;3.90;;;;;;;;;;10337608;28;20022;-78
2023/11/28 02:04:19;;;;;;;12.48;3.75;;;;;;;;;;10324434;28;20472;-79
2023/11/28 02:09:19;;;;;;;5.20;3.53;;;;;;;;;;10334284;28;20033;-78
2023/11/28 02:14:20;;;;;;;8.03;4.13;;;;;;;;;;10331787;28;20053;-74
2023/11/28 02:19:20;;;;;;;7.72;3.85;;;;;;;;;;10303359;28;20642;-79
2023/11/28 02:24:21;;;;;;;8.15;3.85;;;;;;;;;;10348776;28;20427;-79
2023/11/28 02:29:21;;;;;;;9.27;4.53;;;;;;;;;;10319095;28;20497;-78
2023/11/28 02:34:22;;;;;;;7.00;4.28;;;;;;;;;;10325936;28;20026;-80
2023/11/28 02:39:22;;;;;;;11.57;5.03;;;;;;;;;;10326441;28;20412;-76
2023/11/28 02:44:24;;;;;;;8.52;4.30;;;;;;;;;;10325765;28;20333;-78
2023/11/28 02:49:24;;;;;;;7.05;4.10;;;;;;;;;;10309679;28;20030;-77
2023/11/28 02:54:24;;;;;;;9.25;4.45;;;;;;;;;;10321776;28;20548;-74
2023/11/28 02:59:25;;;;;;;10.82;6.22;;;;;;;;;;10277142;28;20038;-79
2023/11/28 03:04:26;;;;;;;7.78;4.43;;;;;;;;;;10314304;28;20026;-80
2023/11/28 03:09:27;;;;;;;7.75;5.15;;;;;;;;;;10321593;28;20014;-78
2023/11/28 03:14:27;;;;;;;10.93;5.05;;;;;;;;;;10321790;28;20203;-76
2023/11/28 03:19:29;;;;;;;10.38;5.53;;;;;;;;;;10321813;28;20014;-76
2023/11/28 03:24:29;;;;;;;8.80;5.95;;;;;;;;;;10319216;28;20109;-80
2023/11/28 03:29:30;;;;;;;9.40;5.00;;;;;;;;;;10283076;28;20035;-79
2023/11/28 03:34:30;;;;;;;10.48;6.07;;;;;;;;;;10300783;28;20033;-79
2023/11/28 03:39:30;;;;;;;10.27;5.03;;;;;;;;;;10322505;28;20023;-81
2023/11/28 03:44:30;;;;;;;9.52;5.40;;;;;;;;;;10304289;28;20430;-80
2023/11/28 03:49:31;;;;;;;10.57;6.03;;;;;;;;;;10292605;28;20022;-79
2023/11/28 03:54:31;;;;;;;9.25;5.65;;;;;;;;;;10290190;28;20073;-77
2023/11/28 03:59:31;;;;;;;10.02;5.70;;;;;;;;;;10321280;28;20378;-79
2023/11/28 04:04:31;;;;;;;11.57;6.85;;;;;;;;;;10320047;28;20113;-78
2023/11/28 04:09:32;;;;;;;9.52;5.90;;;;;;;;;;10303631;28;20378;-80
2023/11/28 04:14:32;;;;;;;13.23;6.80;;;;;;;;;;10319610;28;20045;-79
2023/11/28 04:19:32;;;;;;;10.85;6.35;;;;;;;;;;10302854;28;20487;-80
2023/11/28 04:24:32;;;;;;;8.95;6.07;;;;;;;;;;10318672;28;20121;-80
2023/11/28 04:29:33;;;;;;;10.18;5.97;;;;;;;;;;10319697;28;20062;-75
2023/11/28 04:34:36;;;;;;;14.57;7.00;;;;;;;;;;10320031;28;20030;-79
2023/11/28 04:39:36;;;;;;;13.30;6.72;;;;;;;;;;10353219;28;20026;-74
2023/11/28 04:44:37;;;;;;;11.65;6.28;;;;;;;;;;10308851;28;20452;-73
2023/11/28 04:49:38;;;;;;;12.10;6.22;;;;;;;;;;10334959;28;20042;-80
2023/11/28 04:54:39;;;;;;;10.68;6.80;;;;;;;;;;10302557;28;20022;-79
2023/11/28 04:59:40;;;;;;;15.35;6.28;;;;;;;;;;10294760;28;20543;-75
2023/11/28 05:04:40;;;;;;;15.30;6.93;;;;;;;;;;10304277;28;20613;-76
2023/11/28 05:09:40;;;;;;;20.77;6.65;;;;;;;;;;10311938;28;20026;-78
2023/11/28 05:14:41;;;;;;;12.45;6.57;;;;;;;;;;10340331;28;20412;-79
2023/11/28 05:19:41;;;;;;;10.07;7.30;;;;;;;;;;10319544;28;20027;-80
2023/11/28 05:24:41;;;;;;;12.15;7.07;;;;;;;;;;10303599;28;20024;-75
2023/11/28 05:29:42;;;;;;;13.30;7.28;;;;;;;;;;10316992;28;20413;-78
2023/11/28 05:34:42;;;;;;;16.25;7.13;;;;;;;;;;10324292;28;20508;-80
2023/11/28 05:39:42;;;;;;;14.68;7.80;;;;;;;;;;10300134;28;20031;-75
2023/11/28 05:44:42;;;;;;;13.43;7.38;;;;;;;;;;10317089;28;20207;-81
2023/11/28 05:49:42;;;;;;;13.98;8.05;;;;;;;;;;10317121;28;20026;-80
2023/11/28 05:54:43;;;;;;;19.45;8.70;;;;;;;;;;10318399;28;20019;-79
2023/11/28 05:59:43;;;;;;;19.35;8.18;;;;;;;;;;10322822;28;20531;-79
2023/11/28 06:04:43;;;;;;;14.23;8.73;;;;;;;;;;10323393;28;20101;-75
2023/11/28 06:09:44;;;;;;;17.17;9.18;;;;;;;;;;10324601;28;20015;-75
2023/11/28 06:14:44;;;;;;;18.15;10.65;;;;;;;;;;10328148;28;20033;-82
2023/11/28 06:19:44;;;;;;;20.90;9.65;;;;;;;;;;10322172;28;20262;-81
2023/11/28 06:24:45;;;;;;;15.27;8.55;;;;;;;;;;10324134;28;20025;-74
2023/11/28 06:29:45;;;;;;;15.18;9.27;;;;;;;;;;10307645;28;20573;-78
2023/11/28 06:34:47;;;;;;;23.67;8.25;;;;;;;;;;10311013;28;20019;-79
2023/11/28 06:39:47;;;;;;;14.70;8.27;;;;;;;;;;10325416;28;20015;-79
2023/11/28 06:44:48;;;;;;;17.27;8.25;;;;;;;;;;10325120;28;20054;-75
2023/11/28 06:49:48;;;;;;;17.42;9.68;;;;;;;;;;10326415;28;20046;-74
2023/11/28 06:54:49;;;;;;;17.77;10.53;;;;;;;;;;10326255;28;20110;-76
2023/11/28 06:59:49;;;;;;;29.08;12.35;;;;;;;;;;10326526;28;20022;-78
2023/11/28 07:04:49;;;;;;;19.50;11.02;;;;;;;;;;10324655;28;20533;-74
2023/11/28 07:09:50;;;;;;;21.02;9.57;;;;;;;;;;10307303;28;20023;-76
2023/11/28 07:14:51;;;;;;;21.48;10.75;;;;;;;;;;10324558;28;20054;-75
2023/11/28 07:19:51;;;;;;;17.38;10.35;;;;;;;;;;10307369;28;20033;-78
2023/11/28 07:24:51;;;;;;;23.50;11.37;;;;;;;;;;10307737;28;20027;-79
2023/11/28 07:29:51;;;;;;;18.77;10.38;;;;;;;;;;10325330;28;20367;-80
2023/11/28 07:34:52;;;;;;;19.67;11.30;;;;;;;;;;10308817;28;20034;-74
2023/11/28 07:39:53;;;;;;;23.00;11.00;;;;;;;;;;10324337;28;20417;-75
2023/11/28 07:44:53;;;;;;;20.27;10.40;;;;;;;;;;10323055;28;20061;-74
2023/11/28 07:49:54;;;;;;;23.40;11.82;;;;;;;;;;10324746;28;20477;-81
2023/11/28 07:54:54;;;;;;;20.88;11.68;;;;;;;;;;10298520;28;20034;-75
2023/11/28 07:59:54;;;;;;;21.60;11.27;;;;;;;;;;10322454;28;20026;-82
2023/11/28 08:04:55;;;;;;;21.17;11.43;;;;;;;;;;10324220;28;20087;-80
2023/11/28 08:09:55;;;;;;;26.98;11.00;;;;;;;;;;10305786;28;20027;-74
2023/11/28 08:14:55;;;;;;;17.63;9.23;;;;;;;;;;10323632;28;20026;-75
2023/11/28 08:19:56;;;;;;;17.08;10.55;;;;;;;;;;10321092;28;20022;-81
2023/11/28 08:24:56;;;;;;;25.38;11.55;;;;;;;;;;10321298;28;20460;-73
2023/11/28 08:29:56;;;;;;;23.50;10.55;;;;;;;;;;10321899;28;20018;-80
2023/11/28 08:34:57;;;;;;;18.17;9.93;;;;;;;;;;10321718;28;20030;-75
2023/11/28 08:39:58;;;;;;;18.38;9.55;;;;;;;;;;10304973;28;20484;-75
2023/11/28 08:44:58;;;;;;;22.35;11.73;;;;;;;;;;10296790;28;20143;-74
2023/11/28 08:50:01;;;;;;;27.48;17.48;;;;;;;;;;10262059;28;20085;-74
2023/11/28 08:55:01;;;;;;;19.17;10.95;;;;;;;;;;10266563;28;20086;-75
2023/11/28 09:00:02;;;;;;;16.45;9.48;;;;;;;;;;10280251;28;20125;-75
2023/11/28 09:05:02;;;;;;;21.80;11.30;;;;;;;;;;10281481;28;20023;-79
2023/11/28 09:10:03;;;;;;;33.13;12.80;;;;;;;;;;10280555;28;20426;-80
2023/11/28 09:15:04;;;;;;;16.00;8.75;;;;;;;;;;10279691;28;20321;-75
2023/11/28 09:20:04;;;;;;;20.05;11.20;;;;;;;;;;10295792;28;20061;-78
2023/11/28 09:25:05;;;;;;;29.40;11.18;;;;;;;;;;10274036;28;20019;-75
2023/11/28 09:30:05;;;;;;;20.52;11.65;;;;;;;;;;10280860;28;20035;-79
2023/11/28 09:35:06;;;;;;;24.20;11.10;;;;;;;;;;10279608;28;20489;-74
2023/11/28 09:40:08;;;;;;;21.75;9.77;;;;;;;;;;10283342;28;20465;-78
2023/11/28 09:45:09;;;;;;;15.23;8.65;;;;;;;;;;10298947;28;20054;-81
2023/11/28 09:50:12;;;;;;;21.73;12.00;;;;;;;;;;10295845;28;20118;-74
2023/11/28 09:55:15;;;;;;;16.73;9.27;;;;;;;;;;10279888;28;20027;-74
2023/11/28 10:00:19;;;;;;;13.73;8.35;;;;;;;;;;10295408;28;20023;-77
2023/11/28 10:05:20;;;;;;;13.65;8.48;;;;;;;;;;10293610;28;20081;-74
2023/11/28 10:10:24;;;;;;;12.65;7.35;;;;;;;;;;10249457;28;20027;-79
2023/11/28 10:15:26;;;;;;;15.27;8.82;;;;;;;;;;10282190;28;20066;-74
2023/11/28 10:20:27;;;;;;;13.68;7.20;;;;;;;;;;10294356;28;20475;-76
2023/11/28 10:25:28;;;;;;;14.10;7.55;;;;;;;;;;10278497;28;20015;-80
2023/11/28 10:30:29;;;;;;;18.70;8.68;;;;;;;;;;10319885;28;20030;-78
2023/11/28 10:35:42;;;;;;;19.60;9.10;;;;;;;;;;10289612;28;20481;-76
2023/11/28 10:40:53;;;;;;;12.00;6.15;;;;;;;;;;10310650;28;20022;-80
2023/11/28 10:45:54;;;;;;;18.83;6.03;;;;;;;;;;10300360;28;20054;-81
2023/11/28 10:50:56;;;;;;;12.35;7.38;;;;;;;;;;10286786;28;20033;-80
2023/11/28 10:56:00;;;;;;;14.82;6.32;;;;;;;;;;10284977;28;20093;-75
2023/11/28 11:01:02;;;;;;;19.15;6.60;;;;;;;;;;10300477;28;20270;-75
2023/11/28 11:06:05;;;;;;;11.90;5.18;;;;;;;;;;10286034;28;20023;-75
2023/11/28 11:11:05;;;;;;;9.32;5.72;;;;;;;;;;10284105;28;20490;-75
2023/11/28 11:16:15;;;;;;;10.27;6.53;;;;;;;;;;10300566;28;20023;-77
2023/11/28 11:21:15;;;;;;;13.23;6.88;;;;;;;;;;10299904;28;20019;-75
2023/11/28 11:26:15;;;;;;;18.85;8.57;;;;;;;;;;10284322;28;20019;-74
2023/11/28 11:31:16;;;;;;;15.40;8.18;;;;;;;;;;10284744;28;20453;-76
2023/11/28 11:36:17;;;;;;;15.25;7.38;;;;;;;;;;10299658;28;20022;-75
2023/11/28 11:41:17;;;;;;;12.30;6.87;;;;;;;;;;10282489;28;20031;-80
2023/11/28 11:46:21;;;;;;;19.80;7.17;;;;;;;;;;10299247;28;20301;-79
2023/11/28 11:51:22;;;;;;;13.93;6.97;;;;;;;;;;10282887;28;20027;-80
2023/11/28 11:56:23;;;;;;;16.63;6.43;;;;;;;;;;10298666;28;20552;-78
2023/11/28 12:01:27;;;;;;;13.63;5.93;;;;;;;;;;10280723;28;20133;-79
2023/11/28 12:06:27;;;;;;;9.18;5.90;;;;;;;;;;10243837;29;20201;-80
2023/11/28 12:11:28;;;;;;;14.38;5.97;;;;;;;;;;10273942;28;20027;-77
2023/11/28 12:16:29;;;;;;;11.15;4.85;;;;;;;;;;10275002;28;20050;-75
2023/11/28 12:21:29;;;;;;;11.35;6.40;;;;;;;;;;10280389;28;20019;-75
2023/11/28 12:26:30;;;;;;;25.70;7.10;;;;;;;;;;10297231;28;20046;-77
2023/11/28 12:31:30;;;;;;;17.50;6.68;;;;;;;;;;10281927;28;20030;-79
2023/11/28 12:36:30;;;;;;;22.53;8.53;;;;;;;;;;10297700;28;20529;-81
2023/11/28 12:41:31;;;;;;;12.20;6.30;;;;;;;;;;10280803;28;20030;-81
2023/11/28 12:46:32;;;;;;;18.95;6.65;;;;;;;;;;10296474;28;20093;-74
2023/11/28 12:51:33;;;;;;;11.85;6.30;;;;;;;;;;10280685;28;20118;-79
2023/11/28 12:56:34;;;;;;;18.88;8.02;;;;;;;;;;10296785;28;20034;-77
2023/11/28 13:01:34;;;;;;;15.68;6.30;;;;;;;;;;10296023;28;20030;-79
2023/11/28 13:06:38;;;;;;;16.23;6.23;;;;;;;;;;10280345;28;20062;-78
2023/11/28 13:11:38;;;;;;;12.07;6.95;;;;;;;;;;10281054;28;20145;-77
2023/11/28 13:16:40;;;;;;;12.57;6.53;;;;;;;;;;10279485;28;20033;-80
2023/11/28 13:21:41;;;;;;;22.42;8.27;;;;;;;;;;10295638;28;20027;-79
2023/11/28 13:26:41;;;;;;;24.23;7.10;;;;;;;;;;10280536;28;20023;-75
2023/11/28 13:31:41;;;;;;;12.65;7.30;;;;;;;;;;10281172;28;20033;-80
2023/11/28 13:36:42;;;;;;;12.80;7.20;;;;;;;;;;10295976;28;20031;-75
2023/11/28 13:41:42;;;;;;;23.45;9.05;;;;;;;;;;10295011;28;20037;-75
2023/11/28 13:46:42;;;;;;;14.23;7.53;;;;;;;;;;10319100;28;20030;-77
2023/11/28 13:51:44;;;;;;;16.07;6.83;;;;;;;;;;10319336;28;20100;-79
2023/11/28 13:56:44;;;;;;;19.77;8.00;;;;;;;;;;10319496;28;20531;-78
2023/11/28 14:01:46;;;;;;;17.17;8.13;;;;;;;;;;10318547;28;20114;-80
2023/11/28 14:06:46;;;;;;;14.77;7.63;;;;;;;;;;10303222;28;20022;-82
2023/11/28 14:11:47;;;;;;;20.40;9.82;;;;;;;;;;10319496;28;20022;-76
2023/11/28 14:16:47;;;;;;;22.85;9.73;;;;;;;;;;10303519;28;20022;-77
2023/11/28 14:21:47;;;;;;;26.10;11.18;;;;;;;;;;10335098;28;20029;-78
2023/11/28 14:26:48;;;;;;;16.17;8.75;;;;;;;;;;10312069;28;20393;-74
2023/11/28 14:31:49;;;;;;;22.88;9.50;;;;;;;;;;10325969;28;20060;-78
2023/11/28 14:36:49;;;;;;;24.38;11.52;;;;;;;;;;10326648;28;20124;-77
2023/11/28 14:41:49;;;;;;;27.65;10.73;;;;;;;;;;10325869;28;20057;-74
2023/11/28 14:46:50;;;;;;;28.67;11.97;;;;;;;;;;10325716;28;20599;-75
2023/11/28 14:51:51;;;;;;;14.13;7.75;;;;;;;;;;10326262;28;20121;-75
2023/11/28 14:56:52;;;;;;;17.20;6.72;;;;;;;;;;10309389;28;20022;-83
2023/11/28 15:01:52;;;;;;;13.25;6.13;;;;;;;;;;10325336;28;20022;-74
2023/11/28 15:06:53;;;;;;;11.85;5.72;;;;;;;;;;10326373;28;20029;-81
2023/11/28 15:11:54;;;;;;;16.83;7.15;;;;;;;;;;10323603;28;20114;-75
2023/11/28 15:16:55;;;;;;;11.57;6.18;;;;;;;;;;10309959;28;20037;-83
2023/11/28 15:21:56;;;;;;;10.80;5.95;;;;;;;;;;10323687;28;20037;-74
2023/11/28 15:26:59;;;;;;;14.60;6.85;;;;;;;;;;10324874;28;20025;-79
2023/11/28 15:32:01;;;;;;;15.20;8.13;;;;;;;;;;10309617;28;20404;-77
2023/11/28 15:37:04;;;;;;;11.80;6.07;;;;;;;;;;10312791;28;20025;-80
2023/11/28 15:42:04;;;;;;;15.73;7.70;;;;;;;;;;10323535;28;20501;-80
2023/11/28 15:47:04;;;;;;;12.43;7.60;;;;;;;;;;10311225;28;20045;-76
2023/11/28 15:52:05;;;;;;;13.45;7.28;;;;;;;;;;10305628;28;20093;-73
2023/11/28 15:57:05;;;;;;;12.83;6.00;;;;;;;;;;10306283;28;20053;-74
2023/11/28 16:02:10;;;;;;;12.20;6.28;;;;;;;;;;10320897;28;20296;-73
2023/11/28 16:07:10;;;;;;;12.68;6.82;;;;;;;;;;10304723;28;20511;-73
2023/11/28 16:12:10;;;;;;;13.85;6.75;;;;;;;;;;10322128;28;20354;-78
2023/11/28 16:17:11;;;;;;;11.47;6.17;;;;;;;;;;10289434;28;20088;-78
2023/11/28 16:22:11;;;;;;;10.98;6.70;;;;;;;;;;10322331;28;20033;-78
2023/11/28 16:27:11;;;;;;;13.82;6.63;;;;;;;;;;10304767;28;20137;-77
2023/11/28 16:32:12;;;;;;;14.03;7.30;;;;;;;;;;10318451;28;20034;-73
2023/11/28 16:37:12;;;;;;;12.18;6.72;;;;;;;;;;10303361;28;20030;-79
2023/11/28 16:42:13;;;;;;;11.60;7.43;;;;;;;;;;10306319;28;20278;-78
2023/11/28 16:47:14;;;;;;;14.15;7.13;;;;;;;;;;10302996;28;20594;-77
2023/11/28 16:52:14;;;;;;;16.55;8.57;;;;;;;;;;10287549;28;20505;-79
2023/11/28 16:57:16;;;;;;;16.23;9.32;;;;;;;;;;10303555;28;20027;-76
2023/11/28 17:02:16;;;;;;;19.55;7.38;;;;;;;;;;10308132;28;20372;-76
2023/11/28 17:07:16;;;;;;;12.68;7.75;;;;;;;;;;10308322;28;20052;-77
2023/11/28 17:12:17;;;;;;;13.18;7.57;;;;;;;;;;10305423;28;20030;-78
2023/11/28 17:17:17;;;;;;;15.02;7.07;;;;;;;;;;10300877;28;20057;-73
2023/11/28 17:22:17;;;;;;;19.02;7.57;;;;;;;;;;10300786;28;20104;-72
2023/11/28 17:27:18;;;;;;;15.25;8.32;;;;;;;;;;10318006;28;20464;-74
2023/11/28 17:32:18;;;;;;;20.90;9.33;;;;;;;;;;10297275;28;20085;-72
2023/11/28 17:37:19;;;;;;;22.55;9.85;;;;;;;;;;10303401;28;20277;-77
2023/11/28 17:42:19;;;;;;;19.00;8.45;;;;;;;;;;10315647;28;20054;-74
2023/11/28 17:47:20;;;;;;;20.92;10.60;;;;;;;;;;10304243;28;20114;-71
2023/11/28 17:52:21;;;;;;;14.07;6.70;;;;;;;;;;10310036;28;20038;-71
2023/11/28 17:57:21;;;;;;;18.92;8.18;;;;;;;;;;10306198;28;20022;-71
2023/11/28 18:02:21;;;;;;;19.45;9.63;;;;;;;;;;10294707;28;20033;-72
2023/11/28 18:07:22;;;;;;;15.63;8.43;;;;;;;;;;10323144;28;20034;-75
2023/11/28 18:12:23;;;;;;;15.80;9.20;;;;;;;;;;10306291;28;20804;-72
2023/11/28 18:17:23;;;;;;;20.00;9.70;;;;;;;;;;10325878;28;20026;-72
2023/11/28 18:22:23;;;;;;;18.60;10.38;;;;;;;;;;10301398;28;20386;-72
2023/11/28 18:27:24;;;;;;;19.40;10.45;;;;;;;;;;10313991;28;20026;-72
2023/11/28 18:32:25;;;;;;;20.15;10.65;;;;;;;;;;10317201;28;20038;-74
2023/11/28 18:37:25;;;;;;;22.63;10.40;;;;;;;;;;10308596;28;20073;-75
2023/11/28 18:42:25;;;;;;;23.20;11.23;;;;;;;;;;10308546;28;20054;-72
2023/11/28 18:47:25;;;;;;;19.67;9.88;;;;;;;;;;10315283;28;20113;-71
2023/11/28 18:52:27;;;;;;;30.88;12.45;;;;;;;;;;10308249;28;20129;-76
2023/11/28 18:57:27;;;;;;;22.42;11.45;;;;;;;;;;10324121;28;20527;-70
2023/11/28 19:02:30;;;;;;;19.40;9.90;;;;;;;;;;10313002;28;20129;-77
2023/11/28 19:07:31;;;;;;;23.77;11.43;;;;;;;;;;10327437;28;20123;-72
2023/11/28 19:12:31;;;;;;;30.03;13.13;;;;;;;;;;10307456;28;20084;-72
2023/11/28 19:17:31;;;;;;;30.15;13.43;;;;;;;;;;10330453;28;20041;-72
2023/11/28 19:22:31;;;;;;;33.92;14.05;;;;;;;;;;10327639;28;20037;-74
2023/11/28 19:27:32;;;;;;;30.30;14.05;;;;;;;;;;10318770;28;20026;-74
2023/11/28 19:32:33;;;;;;;24.60;12.20;;;;;;;;;;10324422;28;20452;-75
2023/11/28 19:37:33;;;;;;;29.27;13.20;;;;;;;;;;10323673;28;20033;-74
2023/11/28 19:42:33;;;;;;;23.10;11.45;;;;;;;;;;10310674;28;20058;-75
2023/11/28 19:47:33;;;;;;;22.63;13.30;;;;;;;;;;10324110;28;20029;-77
2023/11/28 19:52:34;;;;;;;22.35;11.43;;;;;;;;;;10321078;28;20030;-76
2023/11/28 19:57:35;;;;;;;21.65;11.95;;;;;;;;;;10333697;28;20459;-76
2023/11/28 20:02:38;;;;;;;27.02;12.98;;;;;;;;;;10333202;28;20068;-75
2023/11/28 20:07:39;;;;;;;29.48;13.77;;;;;;;;;;10334375;28;20057;-75
2023/11/28 20:12:40;;;;;;;26.55;13.00;;;;;;;;;;10310677;28;20026;-78
2023/11/28 20:17:40;;;;;;;24.17;12.82;;;;;;;;;;10326420;28;20095;-78
2023/11/28 20:22:41;;;;;;;22.55;12.57;;;;;;;;;;10323315;28;20038;-77
2023/11/28 20:27:41;;;;;;;22.08;12.43;;;;;;;;;;10321160;28;20034;-78
2023/11/28 20:32:43;;;;;;;25.60;11.90;;;;;;;;;;10328413;28;20452;-79
2023/11/28 20:37:43;;;;;;;22.50;11.10;;;;;;;;;;10305637;28;20169;-75
2023/11/28 20:42:45;;;;;;;20.70;10.38;;;;;;;;;;10302619;28;20056;-78
2023/11/28 20:47:45;;;;;;;88.78;76.22;;;;;;;;;;10324554;28;20046;-81
2023/11/28 20:52:46;;;;;;;11.23;6.68;;;;;;;;;;10322730;28;20026;-75
2023/11/28 20:57:47;;;;;;;13.10;7.80;;;;;;;;;;10331870;28;20026;-77
2023/11/28 21:02:47;;;;;;;22.52;11.43;;;;;;;;;;10328881;28;20048;-79
2023/11/28 21:07:47;;;;;;;11.93;7.60;;;;;;;;;;10340562;28;20038;-76
2023/11/28 21:12:47;;;;;;;19.88;8.02;;;;;;;;;;10322410;28;20026;-80
2023/11/28 21:17:48;;;;;;;22.65;11.25;;;;;;;;;;10338167;28;20125;-79
2023/11/28 21:22:48;;;;;;;22.52;11.43;;;;;;;;;;10326109;28;20113;-79
2023/11/28 21:27:49;;;;;;;23.90;13.00;;;;;;;;;;10330028;28;20472;-77
2023/11/28 21:32:49;;;;;;;26.27;10.45;;;;;;;;;;10332768;28;20022;-79
2023/11/28 21:37:52;;;;;;;15.25;9.57;;;;;;;;;;10335756;28;20508;-80
2023/11/28 21:42:52;;;;;;;19.35;10.57;;;;;;;;;;10338179;28;20054;-78
2023/11/28 21:47:53;;;;;;;18.47;11.23;;;;;;;;;;10323706;28;20031;-79
2023/11/28 21:52:53;;;;;;;17.13;10.40;;;;;;;;;;10329661;28;20326;-74
2023/11/28 21:57:54;;;;;;;19.50;11.10;;;;;;;;;;10351455;28;20037;-75
2023/11/28 22:02:54;;;;;;;19.20;10.10;;;;;;;;;;10338868;28;20037;-77
2023/11/28 22:07:55;;;;;;;20.33;10.20;;;;;;;;;;10320076;28;20548;-79
2023/11/28 22:12:57;;;;;;;18.38;10.13;;;;;;;;;;10320820;28;20033;-78
2023/11/28 22:17:57;;;;;;;21.23;10.38;;;;;;;;;;10320143;28;20038;-78
2023/11/28 22:22:58;;;;;;;75.35;38.75;;;;;;;;;;10321138;28;20034;-78
2023/11/28 22:27:58;;;;;;;18.23;10.90;;;;;;;;;;10301830;28;20475;-78
2023/11/28 22:32:58;;;;;;;25.00;10.48;;;;;;;;;;10317204;28;20446;-78
2023/11/28 22:37:59;;;;;;;16.85;9.23;;;;;;;;;;10318791;28;20060;-75
2023/11/28 22:42:59;;;;;;;15.37;8.90;;;;;;;;;;10322702;28;20038;-81
2023/11/28 22:47:59;;;;;;;15.37;8.47;;;;;;;;;;10323975;28;20056;-75
2023/11/28 22:52:59;;;;;;;141.27;96.68;;;;;;;;;;10311232;28;20117;-75
2023/11/28 22:58:00;;;;;;;15.52;9.30;;;;;;;;;;10325533;28;20022;-75
2023/11/28 23:03:00;;;;;;;16.35;8.45;;;;;;;;;;10325768;28;20022;-78
2023/11/28 23:08:00;;;;;;;16.48;7.50;;;;;;;;;;10325397;28;20493;-77
2023/11/28 23:13:01;;;;;;;18.20;8.43;;;;;;;;;;10325106;28;20029;-75
2023/11/28 23:18:01;;;;;;;14.40;8.35;;;;;;;;;;10324749;28;20048;-74
2023/11/28 23:23:02;;;;;;;20.20;8.50;;;;;;;;;;10325162;28;20049;-74
2023/11/28 23:28:02;;;;;;;16.35;8.18;;;;;;;;;;10344084;28;20331;-74
2023/11/28 23:33:03;;;;;;;13.15;6.55;;;;;;;;;;10331173;28;20034;-73
2023/11/28 23:38:03;;;;;;;14.55;6.80;;;;;;;;;;10326252;28;20141;-74
2023/11/28 23:43:03;;;;;;;16.35;7.60;;;;;;;;;;10324456;28;20141;-74
2023/11/28 23:48:04;;;;;;;13.73;6.55;;;;;;;;;;10323898;28;20058;-75
2023/11/28 23:53:04;;;;;;;10.52;6.70;;;;;;;;;;10308217;28;20034;-74
2023/11/28 23:58:04;;;;;;;14.77;6.72;;;;;;;;;;10323668;28;20034;-75
